createdAt,value
2022-10-11T11:58:39.548Z,4.00
2022-10-11T11:59:11.196Z,4.20
2022-10-11T11:59:41.829Z,4.20
2022-10-11T12:00:12.709Z,4.00
2022-10-11T12:00:43.418Z,4.30
2022-10-11T12:01:14.748Z,4.00
2022-10-11T12:01:44.912Z,4.20
2022-10-11T12:02:15.591Z,4.90
2022-10-11T12:02:46.291Z,4.60
2022-10-11T12:03:16.936Z,3.80
2022-10-11T12:03:47.636Z,4.00
2022-10-11T12:04:18.332Z,3.70
2022-10-11T12:04:48.944Z,4.20
2022-10-11T12:05:19.573Z,3.60
2022-10-11T12:05:50.217Z,4.00
2022-10-11T12:06:20.877Z,4.10
2022-10-11T12:07:11.407Z,4.70
2022-10-11T12:07:22.224Z,4.40
2022-10-11T12:07:53.001Z,4.20
2022-10-11T12:08:23.333Z,4.10
2022-10-11T12:08:53.970Z,4.10
2022-10-11T12:09:24.625Z,4.40
2022-10-11T12:09:55.226Z,4.00
2022-10-11T12:10:25.942Z,4.20
2022-10-11T12:10:56.733Z,4.20
2022-10-11T12:11:34.621Z,4.60
2022-10-11T12:11:58.360Z,4.70
2022-10-11T12:12:29.204Z,4.40
2022-10-11T12:12:59.950Z,4.00
2022-10-11T12:13:32.536Z,4.50
2022-10-11T12:14:01.286Z,4.20
2022-10-11T12:14:32.813Z,4.70
2022-10-11T12:15:03.754Z,4.10
2022-10-11T12:15:33.494Z,4.80
2022-10-11T12:16:04.297Z,4.60
2022-10-11T12:16:35.621Z,4.10
2022-10-11T12:17:05.757Z,3.80
2022-10-11T12:17:36.438Z,3.90
2022-10-11T12:18:07.096Z,4.40
2022-10-11T12:18:42.752Z,4.20
2022-10-11T12:19:08.927Z,4.30
2022-10-11T12:19:39.559Z,4.00
2022-10-11T12:20:10.278Z,4.30
2022-10-11T12:20:40.944Z,4.30
2022-10-11T12:21:11.572Z,4.00
2022-10-11T12:21:42.180Z,3.70
2022-10-11T12:22:12.825Z,4.10
2022-10-11T12:22:44.570Z,4.10
2022-10-11T12:23:17.819Z,3.80
2022-10-11T12:23:44.737Z,4.10
2022-10-11T12:24:15.409Z,3.70
2022-10-11T12:24:46.040Z,3.70
2022-10-11T12:25:18.706Z,4.10
2022-10-11T12:25:47.551Z,3.80
2022-10-11T12:26:18.161Z,4.00
2022-10-11T12:26:50.376Z,3.70
2022-10-11T12:27:20.150Z,4.50
2022-10-11T12:27:50.281Z,4.00
2022-10-11T12:28:21.013Z,4.30
2022-10-11T12:28:51.662Z,4.30
2022-10-11T12:29:27.428Z,4.30
2022-10-11T12:29:59.634Z,4.20
2022-10-11T12:30:24.605Z,3.90
2022-10-11T12:30:54.772Z,4.70
2022-10-11T12:31:25.406Z,4.20
2022-10-11T12:31:56.046Z,4.50
2022-10-11T12:32:26.682Z,4.20
2022-10-11T12:32:57.318Z,4.60
2022-10-11T12:33:27.966Z,4.20
2022-10-11T12:33:58.617Z,4.30
2022-10-11T12:34:30.354Z,4.70
2022-10-11T12:34:59.961Z,4.10
2022-10-11T12:35:30.765Z,4.40
2022-10-11T12:36:04.176Z,4.10
2022-10-11T12:36:32.004Z,4.70
2022-10-11T12:37:05.998Z,4.60
2022-10-11T12:37:33.358Z,4.60
2022-10-11T12:38:03.993Z,4.70
2022-10-11T12:38:34.697Z,4.30
2022-10-11T12:39:07.096Z,4.40
2022-10-11T12:39:36.264Z,4.40
2022-10-11T12:40:06.997Z,4.80
2022-10-11T12:40:40.387Z,4.50
2022-10-11T12:41:08.503Z,4.50
2022-10-11T12:41:39.129Z,4.30
2022-10-11T12:42:09.809Z,4.20
2022-10-11T12:42:40.427Z,4.70
2022-10-11T12:43:11.063Z,3.90
2022-10-11T12:43:41.725Z,4.20
2022-10-11T12:44:12.375Z,4.80
2022-10-11T12:44:43.013Z,4.40
2022-10-11T12:45:13.663Z,4.70
2022-10-11T12:45:44.352Z,4.20
2022-10-11T12:46:14.975Z,4.50
2022-10-11T12:46:45.598Z,3.50
2022-10-11T12:47:16.238Z,4.60
2022-10-11T12:47:46.881Z,4.20
2022-10-11T12:48:17.516Z,4.50
2022-10-11T12:48:48.169Z,3.90
2022-10-11T12:49:18.805Z,4.10
2022-10-11T12:49:49.450Z,4.00
2022-10-11T12:50:20.117Z,4.10
2022-10-11T12:50:50.746Z,4.10
2022-10-11T12:51:21.402Z,4.30
2022-10-11T12:51:52.034Z,4.30
2022-10-11T12:52:22.672Z,4.30
2022-10-11T12:52:53.313Z,4.60
2022-10-11T12:53:23.943Z,4.60
2022-10-11T12:54:21.597Z,3.70
2022-10-11T12:54:34.626Z,4.40
2022-10-11T12:54:55.889Z,4.30
2022-10-11T12:55:26.519Z,4.10
2022-10-11T12:55:57.168Z,3.70
2022-10-11T12:56:27.796Z,3.90
2022-10-11T12:56:58.430Z,3.90
2022-10-11T12:57:29.109Z,3.90
2022-10-11T12:57:59.745Z,3.80
2022-10-11T12:58:30.434Z,3.70
2022-10-11T12:59:01.294Z,3.70
2022-10-11T12:59:32.008Z,3.80
2022-10-11T13:00:02.669Z,3.60
2022-10-11T13:00:33.314Z,3.60
2022-10-11T13:01:03.996Z,3.80
2022-10-11T13:01:34.751Z,3.70
2022-10-11T13:02:05.410Z,4.20
2022-10-11T13:02:36.753Z,4.00
2022-10-11T13:03:06.913Z,3.60
2022-10-11T13:03:37.553Z,4.00
2022-10-11T13:04:08.387Z,3.90
2022-10-11T13:04:39.426Z,4.00
2022-10-11T13:05:09.584Z,3.70
2022-10-11T13:05:44.635Z,3.80
2022-10-11T13:06:11.746Z,3.40
2022-10-11T13:06:42.132Z,3.50
2022-10-11T13:07:12.854Z,3.30
2022-10-11T13:07:43.558Z,4.20
2022-10-11T13:08:14.209Z,4.20
2022-10-11T13:08:44.855Z,4.30
2022-10-11T13:09:16.245Z,3.50
2022-10-11T13:09:49.081Z,3.90
2022-10-11T13:10:17.048Z,3.60
2022-10-11T13:10:49.353Z,3.80
2022-10-11T13:11:18.562Z,3.60
2022-10-11T13:11:49.220Z,3.30
2022-10-11T13:12:19.875Z,3.50
2022-10-11T13:12:50.557Z,3.40
2022-10-11T13:13:21.251Z,3.50
2022-10-11T13:13:51.919Z,3.30
2022-10-11T13:14:22.571Z,3.50
2022-10-11T13:14:53.246Z,3.30
2022-10-11T13:15:23.899Z,3.30
2022-10-11T13:15:54.580Z,3.40
2022-10-11T13:16:25.272Z,3.20
2022-10-11T13:16:55.918Z,3.40
2022-10-11T13:17:26.560Z,3.20
2022-10-11T13:17:57.212Z,3.40
2022-10-11T13:18:27.892Z,3.70
2022-10-11T13:18:58.558Z,3.30
2022-10-11T13:19:29.259Z,4.10
2022-10-11T13:19:59.960Z,3.20
2022-10-11T13:20:30.626Z,3.10
2022-10-11T13:21:01.283Z,3.60
2022-10-11T13:21:31.924Z,3.50
2022-10-11T13:22:02.586Z,3.40
2022-10-11T13:22:36.171Z,3.40
2022-10-11T13:23:03.775Z,3.30
2022-10-11T13:23:35.523Z,3.50
2022-10-11T13:25:34.669Z,3.50
2022-10-11T13:26:06.303Z,3.10
2022-10-11T13:26:36.946Z,3.50
2022-10-11T13:27:07.604Z,4.10
2022-10-11T13:27:38.249Z,3.90
2022-10-11T13:28:08.940Z,3.70
2022-10-11T13:28:39.634Z,3.50
2022-10-11T13:29:10.242Z,3.30
2022-10-11T13:29:40.925Z,3.50
2022-10-11T13:30:11.576Z,2.80
2022-10-11T13:30:42.233Z,3.30
2022-10-11T13:31:12.903Z,3.00
2022-10-11T13:31:43.523Z,3.40
2022-10-11T13:32:14.174Z,3.30
2022-10-11T13:32:44.825Z,3.50
2022-10-11T13:33:15.496Z,3.10
2022-10-11T13:33:46.137Z,3.60
2022-10-11T13:34:20.983Z,3.30
2022-10-11T13:34:47.414Z,3.30
2022-10-11T13:35:21.009Z,3.30
2022-10-11T13:35:48.617Z,3.30
2022-10-11T13:36:19.252Z,3.30
2022-10-11T13:36:49.920Z,3.10
2022-10-11T13:37:20.564Z,3.30
2022-10-11T13:37:51.195Z,3.20
2022-10-11T13:38:21.839Z,3.20
2022-10-11T13:38:52.483Z,3.50
2022-10-11T13:39:27.106Z,3.10
2022-10-11T13:39:53.719Z,3.30
2022-10-11T13:40:24.387Z,3.00
2022-10-11T13:40:55.054Z,4.10
2022-10-11T13:41:25.713Z,3.70
2022-10-11T13:41:56.356Z,3.30
2022-10-11T13:42:26.991Z,3.10
2022-10-11T13:42:57.627Z,3.10
2022-10-11T13:43:28.240Z,3.40
2022-10-11T13:43:58.893Z,3.30
2022-10-11T13:44:29.533Z,3.00
2022-10-11T13:45:00.201Z,3.30
2022-10-11T13:45:30.854Z,3.30
2022-10-11T13:46:01.487Z,3.60
2022-10-11T13:46:32.136Z,3.00
2022-10-11T13:47:02.775Z,3.50
2022-10-11T13:47:33.386Z,3.20
2022-10-11T13:48:04.025Z,3.30
2022-10-11T13:48:34.682Z,3.00
2022-10-11T13:49:05.329Z,3.80
2022-10-11T13:49:36.051Z,4.00
2022-10-11T13:50:06.728Z,3.40
2022-10-11T13:50:37.347Z,3.70
2022-10-11T13:51:07.988Z,3.60
2022-10-11T13:51:38.619Z,4.00
2022-10-11T13:52:09.268Z,3.30
2022-10-11T13:52:39.911Z,4.20
2022-10-11T13:53:10.546Z,3.80
2022-10-11T13:53:41.165Z,3.80
2022-10-11T13:54:13.915Z,3.60
2022-10-11T13:54:42.688Z,3.60
2022-10-11T13:55:13.336Z,3.40
2022-10-11T13:55:43.977Z,3.40
2022-10-11T13:56:14.622Z,3.90
2022-10-11T13:56:45.267Z,3.50
2022-10-11T13:57:15.917Z,3.80
2022-10-11T13:57:46.566Z,3.10
2022-10-11T13:58:18.959Z,3.10
2022-10-11T13:58:47.797Z,3.60
2022-10-11T13:59:18.485Z,3.10
2022-10-11T13:59:49.123Z,3.40
2022-10-11T14:00:19.768Z,3.20
2022-10-11T14:00:50.412Z,3.50
2022-10-11T14:01:21.126Z,3.50
2022-10-11T14:01:51.848Z,3.50
2022-10-11T14:02:22.488Z,3.50
2022-10-11T14:02:53.105Z,3.40
2022-10-11T14:03:23.857Z,3.50
2022-10-11T14:03:54.503Z,3.40
2022-10-11T14:04:29.477Z,3.40
2022-10-11T14:04:55.763Z,3.60
2022-10-11T14:05:26.420Z,3.60
2022-10-11T14:05:57.091Z,3.20
2022-10-11T14:06:27.742Z,3.60
2022-10-11T14:06:58.375Z,3.30
2022-10-11T14:07:28.999Z,3.00
2022-10-11T14:07:59.621Z,3.80
2022-10-11T14:08:30.255Z,3.00
2022-10-11T14:09:01.907Z,3.40
2022-10-11T14:09:31.808Z,3.60
2022-10-11T14:10:02.491Z,3.20
2022-10-11T14:10:33.295Z,3.80
2022-10-11T14:11:06.480Z,3.60
2022-10-11T14:11:34.908Z,3.80
2022-10-11T14:12:05.549Z,3.40
2022-10-11T14:12:36.193Z,3.40
2022-10-11T14:13:06.824Z,3.30
2022-10-11T14:13:37.505Z,3.50
2022-10-11T14:14:08.157Z,3.00
2022-10-11T14:14:40.002Z,3.50
2022-10-11T14:15:10.575Z,3.60
2022-10-11T14:15:40.198Z,3.40
2022-10-11T14:16:10.853Z,3.50
2022-10-11T14:16:41.493Z,2.90
2022-10-11T14:17:12.137Z,3.20
2022-10-11T14:17:42.779Z,3.30
2022-10-11T14:18:13.441Z,3.20
2022-10-11T14:18:44.088Z,2.90
2022-10-11T14:19:14.739Z,3.50
2022-10-11T14:19:45.413Z,3.60
2022-10-11T14:20:16.049Z,3.20
2022-10-11T14:20:46.719Z,3.20
2022-10-11T14:21:17.395Z,3.70
2022-10-11T14:21:48.094Z,3.30
2022-10-11T14:22:18.753Z,3.10
2022-10-11T14:22:49.614Z,3.30
2022-10-11T14:23:20.222Z,3.30
2022-10-11T14:23:50.858Z,3.20
2022-10-11T14:24:21.506Z,3.00
2022-10-11T14:24:52.144Z,3.40
2022-10-11T14:25:22.778Z,3.50
2022-10-11T14:25:53.435Z,3.40
2022-10-11T14:26:24.148Z,3.50
2022-10-11T14:26:54.808Z,3.90
2022-10-11T14:27:25.439Z,4.10
2022-10-11T14:27:56.079Z,4.00
2022-10-11T14:28:26.811Z,3.70
2022-10-11T14:28:57.502Z,3.50
2022-10-11T14:29:28.162Z,3.40
2022-10-11T14:30:25.073Z,3.30
2022-10-11T14:30:30.900Z,3.50
2022-10-11T14:31:00.083Z,3.50
2022-10-11T14:31:30.742Z,3.20
2022-10-11T14:32:01.389Z,4.40
2022-10-11T14:32:32.078Z,3.80
2022-10-11T14:33:02.812Z,3.80
2022-10-11T14:33:33.458Z,3.70
2022-10-11T14:34:04.129Z,4.20
2022-10-11T14:34:34.786Z,3.90
2022-10-11T14:35:05.435Z,3.60
2022-10-11T14:35:36.115Z,3.80
2022-10-11T14:36:07.113Z,4.30
2022-10-11T14:36:37.522Z,4.20
2022-10-11T14:37:08.167Z,3.80
2022-10-11T14:37:38.808Z,3.90
2022-10-11T14:38:09.461Z,4.10
2022-10-11T14:38:40.270Z,3.60
2022-10-11T14:39:10.957Z,3.70
2022-10-11T14:39:41.587Z,3.90
2022-10-11T14:40:12.271Z,3.70
2022-10-11T14:40:42.951Z,4.20
2022-10-11T14:41:13.605Z,3.80
2022-10-11T14:41:44.246Z,3.40
2022-10-11T14:42:14.939Z,3.80
2022-10-11T14:42:45.563Z,3.40
2022-10-11T14:43:16.210Z,3.80
2022-10-11T14:43:46.911Z,3.70
2022-10-11T14:44:18.411Z,3.80
2022-10-11T14:44:48.041Z,4.90
2022-10-11T14:45:18.707Z,3.90
2022-10-11T14:45:49.878Z,4.20
2022-10-11T14:46:20.076Z,7.10
2022-10-11T14:46:54.057Z,7.10
2022-10-11T14:47:21.613Z,5.00
2022-10-11T14:47:52.245Z,5.30
2022-10-11T14:48:42.912Z,7.40
2022-10-11T14:48:58.625Z,4.90
2022-10-11T14:49:24.257Z,4.50
2022-10-11T14:49:54.911Z,3.80
2022-10-11T14:50:25.557Z,4.10
2022-10-11T14:50:56.212Z,3.90
2022-10-11T14:51:26.866Z,3.90
2022-10-11T14:51:58.267Z,3.70
2022-10-11T14:52:32.366Z,4.10
2022-10-11T14:52:59.012Z,3.70
2022-10-11T14:53:29.695Z,3.70
2022-10-11T14:54:00.357Z,4.30
2022-10-11T14:54:30.993Z,4.00
2022-10-11T14:55:01.670Z,3.80
2022-10-11T14:55:32.308Z,4.30
2022-10-11T14:56:03.216Z,3.60
2022-10-11T14:56:33.611Z,4.00
2022-10-11T14:57:04.274Z,5.30
2022-10-11T14:57:34.944Z,3.90
2022-10-11T14:58:05.580Z,3.80
2022-10-11T14:58:36.379Z,4.60
2022-10-11T14:59:06.995Z,4.80
2022-10-11T14:59:37.638Z,3.70
2022-10-11T15:00:08.287Z,4.00
2022-10-11T15:00:38.941Z,3.90
2022-10-11T15:01:09.610Z,5.30
2022-10-11T15:01:40.382Z,3.90
2022-10-11T15:02:10.991Z,4.20
2022-10-11T15:02:41.833Z,3.50
2022-10-11T15:03:12.442Z,3.80
2022-10-11T15:03:43.087Z,3.70
2022-10-11T15:04:13.742Z,3.60
2022-10-11T15:04:44.404Z,3.40
2022-10-11T15:05:15.030Z,3.80
2022-10-11T15:05:45.826Z,4.70
2022-10-11T15:06:16.466Z,4.10
2022-10-11T15:06:47.879Z,4.20
2022-10-11T15:07:18.020Z,3.90
2022-10-11T15:07:48.674Z,3.80
2022-10-11T15:08:19.289Z,4.10
2022-10-11T15:08:49.934Z,4.00
2022-10-11T15:09:20.572Z,3.50
2022-10-11T15:09:51.229Z,4.10
2022-10-11T15:10:21.869Z,3.70
2022-10-11T15:10:52.571Z,4.00
2022-10-11T15:11:23.219Z,4.90
2022-10-11T15:11:53.884Z,4.00
2022-10-11T15:12:24.619Z,3.50
2022-10-11T15:12:55.259Z,3.50
2022-10-11T15:13:25.916Z,4.00
2022-10-11T15:13:56.578Z,3.90
2022-10-11T15:14:35.745Z,3.40
2022-10-11T15:14:57.954Z,3.40
2022-10-11T15:15:28.858Z,3.40
2022-10-11T15:15:59.638Z,4.00
2022-10-11T15:16:31.083Z,3.50
2022-10-11T15:17:01.424Z,3.90
2022-10-11T15:17:31.586Z,4.20
2022-10-11T15:18:02.273Z,3.70
2022-10-11T15:18:32.884Z,3.90
2022-10-11T15:19:03.518Z,3.70
2022-10-11T15:19:34.178Z,3.60
2022-10-11T15:20:04.816Z,3.70
2022-10-11T15:20:35.463Z,4.00
2022-10-11T15:21:06.130Z,4.00
2022-10-11T15:21:36.781Z,4.00
2022-10-11T15:22:07.801Z,4.00
2022-10-11T15:22:38.044Z,3.80
2022-10-11T15:23:08.682Z,4.40
2022-10-11T15:23:39.320Z,4.50
2022-10-11T15:24:10.881Z,3.70
2022-10-11T15:24:40.528Z,4.20
2022-10-11T15:25:11.183Z,4.00
2022-10-11T15:25:41.823Z,3.70
2022-10-11T15:26:12.449Z,4.10
2022-10-11T15:26:43.091Z,4.30
2022-10-11T15:27:13.738Z,4.40
2022-10-11T15:27:44.381Z,4.30
2022-10-11T15:28:15.023Z,4.30
2022-10-11T15:28:46.213Z,4.70
2022-10-11T15:29:16.818Z,3.90
2022-10-11T15:29:46.914Z,4.30
2022-10-11T15:30:17.546Z,4.10
2022-10-11T15:30:48.210Z,4.00
2022-10-11T15:31:18.891Z,4.10
2022-10-11T15:31:49.567Z,4.60
2022-10-11T15:32:20.193Z,4.20
2022-10-11T15:32:50.852Z,4.90
2022-10-11T15:33:21.488Z,4.40
2022-10-11T15:33:52.121Z,4.60
2022-10-11T15:34:22.866Z,5.10
2022-10-11T15:34:53.542Z,4.80
2022-10-11T15:35:24.183Z,4.60
2022-10-11T15:35:54.824Z,4.40
2022-10-11T15:36:25.462Z,4.90
2022-10-11T15:36:56.109Z,4.30
2022-10-11T15:37:26.787Z,5.00
2022-10-11T15:37:57.488Z,4.80
2022-10-11T15:38:28.140Z,4.50
2022-10-11T15:38:58.736Z,4.60
2022-10-11T15:39:29.396Z,4.70
2022-10-11T15:40:00.189Z,4.70
2022-10-11T15:40:30.939Z,4.90
2022-10-11T15:41:01.684Z,4.90
2022-10-11T15:41:33.036Z,4.60
2022-10-11T15:42:03.555Z,4.90
2022-10-11T15:42:35.174Z,4.90
2022-10-11T15:43:04.884Z,5.00
2022-10-11T15:43:35.729Z,4.80
2022-10-11T15:44:06.381Z,5.20
2022-10-11T15:44:37.027Z,5.50
2022-10-11T15:45:07.722Z,5.10
2022-10-11T15:45:38.399Z,5.20
2022-10-11T15:46:09.508Z,5.20
2022-10-11T15:46:39.883Z,5.10
2022-10-11T15:47:10.539Z,5.30
2022-10-11T15:47:41.200Z,5.40
2022-10-11T15:48:11.848Z,4.90
2022-10-11T15:48:42.481Z,4.60
2022-10-11T15:49:13.106Z,5.20
2022-10-11T15:49:43.742Z,5.10
2022-10-11T15:50:14.373Z,5.20
2022-10-11T15:50:45.041Z,4.90
2022-10-11T15:51:15.695Z,4.70
2022-10-11T15:51:46.317Z,5.40
2022-10-11T15:52:16.961Z,4.90
2022-10-11T15:52:47.614Z,5.20
2022-10-11T15:53:18.268Z,5.10
2022-10-11T15:53:48.919Z,5.30
2022-10-11T15:54:19.550Z,4.90
2022-10-11T15:54:50.193Z,5.90
2022-10-11T15:55:20.841Z,4.70
2022-10-11T15:55:51.447Z,5.30
2022-10-11T15:56:22.098Z,5.60
2022-10-11T15:56:52.760Z,5.50
2022-10-11T15:57:23.400Z,5.60
2022-10-11T15:57:54.052Z,5.70
2022-10-11T15:58:24.745Z,5.70
2022-10-11T15:58:55.394Z,5.30
2022-10-11T15:59:26.026Z,5.00
2022-10-11T15:59:56.677Z,5.40
2022-10-11T16:00:27.340Z,5.20
2022-10-11T16:00:57.994Z,5.50
2022-10-11T16:01:28.713Z,5.80
2022-10-11T16:01:59.396Z,5.50
2022-10-11T16:02:30.046Z,5.90
2022-10-11T16:03:00.699Z,5.90
2022-10-11T16:03:31.348Z,5.30
2022-10-11T16:04:02.000Z,5.60
2022-10-11T16:04:32.668Z,5.80
2022-10-11T16:05:03.308Z,6.60
2022-10-11T16:05:33.970Z,6.90
2022-10-11T16:06:05.706Z,6.30
2022-10-11T16:06:35.564Z,6.50
2022-10-11T16:07:06.230Z,7.10
2022-10-11T16:07:36.917Z,6.80
2022-10-11T16:08:07.564Z,6.90
2022-10-11T16:08:38.203Z,6.80
2022-10-11T16:09:08.863Z,6.80
2022-10-11T16:09:39.567Z,6.20
2022-10-11T16:10:10.213Z,6.40
2022-10-11T16:10:40.866Z,6.40
2022-10-11T16:11:11.509Z,6.50
2022-10-11T16:11:42.180Z,5.70
2022-10-11T16:12:12.823Z,5.90
2022-10-11T16:12:43.487Z,5.50
2022-10-11T16:13:14.184Z,5.60
2022-10-11T16:13:44.837Z,4.80
2022-10-11T16:14:15.489Z,4.80
2022-10-11T16:14:47.288Z,5.10
2022-10-11T16:15:17.076Z,5.00
2022-10-11T16:15:47.734Z,5.30
2022-10-11T16:16:18.381Z,5.10
2022-10-11T16:16:49.025Z,4.60
2022-10-11T16:17:19.663Z,5.50
2022-10-11T16:17:50.322Z,4.50
2022-10-11T16:18:21.002Z,5.10
2022-10-11T16:18:51.646Z,5.00
2022-10-11T16:19:22.279Z,4.50
2022-10-11T16:19:52.938Z,4.70
2022-10-11T16:20:23.588Z,4.40
2022-10-11T16:20:54.284Z,4.40
2022-10-11T16:21:24.892Z,3.80
2022-10-11T16:21:55.540Z,4.20
2022-10-11T16:22:26.190Z,4.10
2022-10-11T16:22:56.869Z,4.60
2022-10-11T16:23:27.531Z,4.50
2022-10-11T16:23:58.172Z,4.20
2022-10-11T16:24:28.852Z,4.20
2022-10-11T16:24:59.512Z,4.30
2022-10-11T16:25:30.169Z,4.50
2022-10-11T16:26:00.833Z,4.20
2022-10-11T16:26:31.503Z,4.70
2022-10-11T16:27:02.145Z,4.20
2022-10-11T16:27:32.803Z,4.50
2022-10-11T16:28:03.483Z,4.20
2022-10-11T16:28:34.424Z,5.10
2022-10-11T16:29:05.054Z,4.80
2022-10-11T16:29:35.895Z,4.70
2022-10-11T16:30:06.548Z,4.70
2022-10-11T16:30:37.171Z,4.80
2022-10-11T16:31:07.795Z,4.80
2022-10-11T16:31:38.459Z,4.90
2022-10-11T16:32:09.268Z,4.90
2022-10-11T16:32:40.224Z,5.10
2022-10-11T16:33:10.825Z,4.70
2022-10-11T16:33:42.485Z,5.00
2022-10-11T16:34:12.269Z,5.50
2022-10-11T16:34:43.404Z,5.20
2022-10-11T16:35:13.572Z,4.80
2022-10-11T16:35:44.227Z,5.80
2022-10-11T16:36:21.901Z,4.30
2022-10-11T16:36:50.905Z,4.50
2022-10-11T16:37:16.056Z,4.60
2022-10-11T16:37:46.689Z,4.50
2022-10-11T16:38:17.323Z,4.50
2022-10-11T16:38:47.984Z,5.20
2022-10-11T16:39:19.488Z,4.90
2022-10-11T16:39:50.363Z,5.10
2022-10-11T16:40:26.796Z,5.30
2022-10-11T16:40:50.931Z,5.00
2022-10-11T16:41:21.579Z,5.00
2022-10-11T16:41:52.207Z,4.90
2022-10-11T16:42:22.844Z,4.70
2022-10-11T16:42:53.474Z,5.30
2022-10-11T16:43:24.907Z,4.90
2022-10-11T16:43:55.093Z,5.50
2022-10-11T16:44:25.900Z,4.90
2022-10-11T16:44:56.521Z,5.20
2022-10-11T16:45:27.158Z,4.50
2022-10-11T16:45:57.799Z,5.30
2022-10-11T16:46:28.435Z,4.70
2022-10-11T16:46:59.250Z,4.90
2022-10-11T16:47:29.841Z,5.10
2022-10-11T16:48:00.474Z,4.80
2022-10-11T16:48:31.114Z,4.80
2022-10-11T16:49:01.766Z,4.90
2022-10-11T16:49:32.564Z,4.70
2022-10-11T16:50:03.271Z,4.90
2022-10-11T16:50:39.066Z,5.20
2022-10-11T16:51:05.305Z,5.50
2022-10-11T16:51:35.444Z,5.00
2022-10-11T16:52:06.077Z,5.70
2022-10-11T16:52:36.707Z,5.10
2022-10-11T16:53:07.337Z,5.40
2022-10-11T16:53:39.641Z,5.60
2022-10-11T16:54:08.743Z,5.90
2022-10-11T16:54:39.352Z,5.50
2022-10-11T16:55:10.009Z,5.60
2022-10-11T16:55:40.846Z,5.70
2022-10-11T16:56:11.467Z,5.80
2022-10-11T16:56:42.085Z,5.40
2022-10-11T16:57:12.754Z,5.50
2022-10-11T16:57:45.500Z,5.90
2022-10-11T16:58:15.407Z,5.40
2022-10-11T16:58:45.954Z,5.70
2022-10-11T16:59:15.567Z,5.60
2022-10-11T16:59:46.329Z,5.20
2022-10-11T17:00:16.990Z,5.50
2022-10-11T17:00:48.386Z,4.80
2022-10-11T17:01:18.539Z,5.10
2022-10-11T17:01:49.337Z,5.00
2022-10-11T17:02:19.957Z,5.80
2022-10-11T17:02:50.599Z,5.10
2022-10-11T17:03:21.238Z,5.10
2022-10-11T17:03:51.897Z,5.60
2022-10-11T17:04:25.212Z,5.20
2022-10-11T17:04:53.357Z,5.50
2022-10-11T17:05:23.994Z,5.30
2022-10-11T17:05:54.623Z,4.90
2022-10-11T17:06:25.262Z,5.10
2022-10-11T17:06:55.897Z,5.40
2022-10-11T17:07:26.698Z,4.80
2022-10-11T17:07:57.340Z,5.10
2022-10-11T17:08:27.995Z,5.00
2022-10-11T17:08:58.632Z,5.60
2022-10-11T17:09:29.399Z,5.50
2022-10-11T17:10:00.087Z,5.60
2022-10-11T17:10:30.742Z,4.80
2022-10-11T17:11:01.938Z,5.10
2022-10-11T17:11:32.292Z,5.50
2022-10-11T17:12:02.937Z,5.20
2022-10-11T17:12:33.580Z,5.10
2022-10-11T17:13:04.246Z,5.30
2022-10-11T17:13:34.901Z,5.70
2022-10-11T17:14:05.553Z,5.90
2022-10-11T17:14:36.181Z,6.10
2022-10-11T17:15:06.826Z,5.30
2022-10-11T17:15:37.457Z,6.40
2022-10-11T17:16:08.724Z,5.70
2022-10-11T17:16:38.715Z,5.40
2022-10-11T17:17:09.366Z,5.70
2022-10-11T17:17:40.018Z,6.10
2022-10-11T17:18:10.650Z,5.40
2022-10-11T17:18:41.281Z,6.00
2022-10-11T17:19:11.912Z,5.40
2022-10-11T17:19:45.132Z,5.30
2022-10-11T17:20:13.189Z,5.90
2022-10-11T17:20:43.850Z,5.00
2022-10-11T17:21:14.472Z,5.20
2022-10-11T17:21:45.923Z,5.80
2022-10-11T17:22:16.067Z,5.20
2022-10-11T17:22:46.677Z,5.20
2022-10-11T17:23:17.412Z,5.40
2022-10-11T17:23:48.065Z,5.40
2022-10-11T17:24:18.707Z,5.40
2022-10-11T17:24:49.348Z,5.50
2022-10-11T17:25:19.975Z,5.40
2022-10-11T17:25:50.716Z,5.40
2022-10-11T17:26:21.457Z,5.00
2022-10-11T17:26:52.929Z,5.20
2022-10-11T17:27:23.072Z,5.30
2022-10-11T17:27:53.790Z,5.10
2022-10-11T17:28:24.466Z,5.10
2022-10-11T17:28:55.149Z,5.50
2022-10-11T17:29:25.773Z,5.30
2022-10-11T17:29:56.429Z,5.30
2022-10-11T17:30:27.069Z,5.00
2022-10-11T17:30:57.704Z,4.80
2022-10-11T17:31:28.354Z,5.20
2022-10-11T17:31:59.030Z,6.10
2022-10-11T17:32:29.740Z,5.50
2022-10-11T17:33:00.408Z,5.10
2022-10-11T17:33:31.092Z,5.70
2022-10-11T17:34:01.773Z,5.20
2022-10-11T17:34:32.414Z,5.80
2022-10-11T17:35:03.065Z,5.50
2022-10-11T17:35:33.698Z,5.00
2022-10-11T17:36:04.700Z,5.30
2022-10-11T17:36:35.049Z,5.40
2022-10-11T17:37:05.709Z,6.20
2022-10-11T17:37:36.386Z,4.90
2022-10-11T17:38:07.032Z,4.90
2022-10-11T17:38:37.685Z,5.00
2022-10-11T17:39:08.345Z,5.60
2022-10-11T17:39:38.996Z,5.20
2022-10-11T17:40:09.633Z,5.00
2022-10-11T17:40:40.262Z,5.40
2022-10-11T17:41:10.908Z,5.90
2022-10-11T17:41:41.523Z,5.40
2022-10-11T17:42:12.397Z,5.60
2022-10-11T17:42:43.029Z,5.10
2022-10-11T17:43:13.662Z,5.40
2022-10-11T17:43:44.292Z,5.30
2022-10-11T17:44:14.931Z,5.40
2022-10-11T17:44:45.579Z,5.20
2022-10-11T17:45:16.216Z,5.20
2022-10-11T17:45:46.918Z,6.20
2022-10-11T17:46:17.556Z,5.40
2022-10-11T17:46:48.217Z,5.50
2022-10-11T17:47:18.870Z,5.30
2022-10-11T17:47:49.579Z,5.50
2022-10-11T17:48:20.262Z,5.50
2022-10-11T17:48:50.859Z,5.50
2022-10-11T17:49:21.508Z,6.30
2022-10-11T17:49:52.198Z,5.40
2022-10-11T17:50:22.782Z,6.90
2022-10-11T17:50:53.417Z,6.40
2022-10-11T17:51:24.118Z,5.60
2022-10-11T17:51:54.760Z,5.60
2022-10-11T17:52:25.410Z,5.90
2022-10-11T17:52:56.053Z,5.30
2022-10-11T17:53:26.726Z,5.40
2022-10-11T17:53:57.371Z,5.20
2022-10-11T17:54:28.015Z,6.00
2022-10-11T17:54:58.642Z,5.20
2022-10-11T17:55:29.310Z,5.30
2022-10-11T17:55:59.960Z,6.00
2022-10-11T17:56:36.551Z,5.70
2022-10-11T17:57:01.413Z,6.70
2022-10-11T17:57:32.122Z,5.70
2022-10-11T17:58:02.769Z,6.60
2022-10-11T17:58:33.454Z,6.40
2022-10-11T17:59:04.127Z,6.00
2022-10-11T17:59:34.774Z,6.40
2022-10-11T18:00:05.415Z,6.00
2022-10-11T18:00:36.154Z,6.00
2022-10-11T18:01:07.129Z,5.80
2022-10-11T18:01:37.499Z,5.90
2022-10-11T18:02:08.188Z,6.40
2022-10-11T18:02:42.122Z,5.90
2022-10-11T18:03:11.547Z,6.20
2022-10-11T18:03:41.836Z,6.10
2022-10-11T18:04:11.462Z,5.60
2022-10-11T18:04:42.130Z,5.80
2022-10-11T18:05:13.555Z,5.70
2022-10-11T18:05:43.822Z,5.60
2022-10-11T18:06:14.678Z,5.80
2022-10-11T18:06:45.330Z,5.60
2022-10-11T18:07:16.052Z,5.60
2022-10-11T18:07:49.059Z,5.60
2022-10-11T18:08:17.786Z,6.30
2022-10-11T18:08:50.346Z,5.10
2022-10-11T18:09:19.938Z,5.50
2022-10-11T18:09:50.900Z,6.00
2022-10-11T18:10:20.887Z,5.90
2022-10-11T18:10:51.121Z,5.80
2022-10-11T18:11:21.776Z,6.10
2022-10-11T18:11:52.414Z,5.60
2022-10-11T18:12:23.051Z,5.90
2022-10-11T18:12:53.853Z,5.50
2022-10-11T18:13:24.518Z,6.10
2022-10-11T18:13:55.835Z,6.40
2022-10-11T18:14:27.723Z,6.00
2022-10-11T18:14:56.902Z,5.50
2022-10-11T18:15:27.558Z,5.70
2022-10-11T18:15:58.201Z,6.00
2022-10-11T18:16:29.498Z,5.70
2022-10-11T18:16:59.640Z,6.40
2022-10-11T18:17:30.270Z,6.00
2022-10-11T18:18:00.934Z,5.90
2022-10-11T18:18:31.571Z,6.40
2022-10-11T18:19:02.208Z,5.80
2022-10-11T18:19:33.828Z,5.50
2022-10-11T18:20:03.517Z,6.00
2022-10-11T18:20:34.173Z,6.80
2022-10-11T18:21:04.824Z,6.90
2022-10-11T18:21:35.467Z,6.60
2022-10-11T18:22:07.332Z,6.60
2022-10-11T18:22:37.042Z,6.00
2022-10-11T18:23:07.703Z,6.80
2022-10-11T18:23:38.365Z,7.10
2022-10-11T18:24:09.004Z,7.30
2022-10-11T18:24:39.637Z,7.20
2022-10-11T18:25:10.285Z,7.90
2022-10-11T18:25:40.926Z,7.60
2022-10-11T18:26:11.583Z,7.80
2022-10-11T18:26:42.238Z,7.30
2022-10-11T18:27:12.868Z,7.20
2022-10-11T18:27:43.502Z,8.40
2022-10-11T18:28:14.189Z,7.50
2022-10-11T18:28:44.901Z,7.80
2022-10-11T18:29:15.500Z,7.20
2022-10-11T18:29:46.140Z,8.30
2022-10-11T18:30:16.770Z,8.00
2022-10-11T18:30:47.422Z,7.90
2022-10-11T18:31:18.860Z,8.00
2022-10-11T18:31:48.683Z,8.20
2022-10-11T18:32:19.326Z,7.50
2022-10-11T18:32:49.959Z,7.60
2022-10-11T18:33:20.600Z,7.70
2022-10-11T18:33:51.256Z,7.90
2022-10-11T18:34:21.947Z,7.70
2022-10-11T18:34:52.622Z,7.20
2022-10-11T18:35:23.272Z,7.40
2022-10-11T18:35:53.928Z,7.30
2022-10-11T18:36:24.570Z,7.50
2022-10-11T18:36:55.210Z,7.80
2022-10-11T18:37:26.507Z,7.60
2022-10-11T18:38:00.775Z,8.20
2022-10-11T18:38:27.321Z,7.50
2022-10-11T18:38:58.261Z,9.00
2022-10-11T18:39:29.131Z,8.80
2022-10-11T18:39:59.923Z,8.20
2022-10-11T18:40:30.908Z,8.80
2022-10-11T18:41:02.100Z,8.40
2022-10-11T18:41:32.216Z,8.40
2022-10-11T18:42:02.613Z,7.70
2022-10-11T18:42:33.326Z,8.10
2022-10-11T18:43:03.992Z,8.90
2022-10-11T18:43:34.634Z,8.60
2022-10-11T18:44:05.303Z,9.50
2022-10-11T18:44:35.951Z,9.10
2022-10-11T18:45:06.580Z,9.90
2022-10-11T18:45:37.212Z,10.00
2022-10-11T18:46:07.856Z,9.90
2022-10-11T18:46:38.478Z,8.60
2022-10-11T18:47:09.113Z,9.60
2022-10-11T18:47:39.748Z,9.20
2022-10-11T18:48:10.382Z,8.80